Time,TemperatureF,DewpointF,PressureIn,WindDirection,WindDirectionDegrees,WindSpeedMPH,WindSpeedGustMPH,Humidity,HourlyPrecipIn,Conditions,Clouds,dailyrainin,SoftwareType,DateUTC
2013-11-18 00:01:00,53.1,47.2,29.63,South,180,3.6,4.9,80,0.03,,,0.00,WUHU216HW,2013-11-18 05:01:00,
2013-11-18 00:06:00,53.1,47.2,29.62,SSE,158,5.8,6.9,80,0.03,,,0.00,WUHU216HW,2013-11-18 05:06:00,
2013-11-18 00:11:00,53.3,47.3,29.62,SE,135,5.8,6.9,80,0.03,,,0.00,WUHU216HW,2013-11-18 05:11:00,
2013-11-18 00:16:00,53.3,47.3,29.61,SSW,203,7.6,8.3,80,0.03,,,0.00,WUHU216HW,2013-11-18 05:16:00,
2013-11-18 00:21:00,53.3,47.3,29.61,South,180,5.6,8.3,80,0.03,,,0.00,WUHU216HW,2013-11-18 05:21:00,
2013-11-18 00:26:00,53.5,47.5,29.60,SE,135,4.9,7.4,80,0.03,,,0.00,WUHU216HW,2013-11-18 05:26:00,
2013-11-18 00:31:00,53.5,47.5,29.58,SSE,158,7.6,11.4,80,0.00,,,0.00,WUHU216HW,2013-11-18 05:31:00,
2013-11-18 00:36:00,53.6,47.7,29.58,SSW,203,5.4,11.4,80,0.00,,,0.00,WUHU216HW,2013-11-18 05:36:00,
2013-11-18 00:41:00,53.6,47.7,29.57,South,180,9.2,9.8,80,0.00,,,0.00,WUHU216HW,2013-11-18 05:41:00,
2013-11-18 00:46:00,53.8,47.9,29.57,SSE,158,7.2,9.8,80,0.00,,,0.00,WUHU216HW,2013-11-18 05:46:00,
2013-11-18 00:51:00,53.8,47.9,29.56,South,180,6.0,8.5,80,0.00,,,0.00,WUHU216HW,2013-11-18 05:51:00,
2013-11-18 00:56:00,53.8,47.9,29.56,SSE,158,6.9,8.9,80,0.00,,,0.00,WUHU216HW,2013-11-18 05:56:00,
2013-11-18 01:01:00,53.8,47.9,29.56,SE,135,6.9,8.9,80,0.00,,,0.00,WUHU216HW,2013-11-18 06:01:00,
2013-11-18 01:06:00,53.8,47.9,29.55,SE,135,9.6,9.6,80,0.00,,,0.00,WUHU216HW,2013-11-18 06:06:00,
2013-11-18 01:11:00,54.0,48.1,29.55,South,180,6.9,9.6,80,0.00,,,0.00,WUHU216HW,2013-11-18 06:11:00,
2013-11-18 01:16:00,54.0,48.3,29.53,SSE,158,9.4,9.4,81,0.00,,,0.00,WUHU216HW,2013-11-18 06:16:00,
2013-11-18 01:21:00,54.0,48.3,29.53,SE,135,7.6,9.4,81,0.00,,,0.00,WUHU216HW,2013-11-18 06:21:00,
2013-11-18 01:26:00,54.0,48.3,29.51,SSE,158,8.1,8.9,81,0.00,,,0.00,WUHU216HW,2013-11-18 06:26:00,
2013-11-18 01:31:00,54.0,48.3,29.51,SSE,158,6.5,8.9,81,0.00,,,0.00,WUHU216HW,2013-11-18 06:31:00,
2013-11-18 01:36:00,54.0,48.3,29.49,SSE,158,6.9,8.1,81,0.00,,,0.00,WUHU216HW,2013-11-18 06:36:00,
2013-11-18 01:41:00,54.0,48.1,29.49,SE,135,4.7,8.1,80,0.00,,,0.00,WUHU216HW,2013-11-18 06:41:00,
2013-11-18 01:46:00,54.2,48.2,29.49,West,270,6.5,6.5,80,0.00,,,0.00,WUHU216HW,2013-11-18 06:46:00,
2013-11-18 01:51:00,54.4,48.3,29.48,SSW,203,7.6,7.6,80,0.00,,,0.00,WUHU216HW,2013-11-18 06:51:00,
2013-11-18 01:56:00,54.4,48.7,29.47,SSE,158,6.9,9.4,81,0.00,,,0.00,WUHU216HW,2013-11-18 06:56:00,
2013-11-18 02:01:00,54.5,48.9,29.47,South,180,9.2,9.4,81,0.00,,,0.00,WUHU216HW,2013-11-18 07:01:00,
2013-11-18 02:06:00,54.7,48.7,29.46,SE,135,7.6,11.4,80,0.00,,,0.00,WUHU216HW,2013-11-18 07:06:00,
2013-11-18 02:11:00,55.1,49.0,29.46,ESE,113,9.6,11.4,80,0.00,,,0.00,WUHU216HW,2013-11-18 07:11:00,
2013-11-18 02:16:00,55.3,49.1,29.46,SE,135,7.4,11.9,80,0.00,,,0.00,WUHU216HW,2013-11-18 07:16:00,
2013-11-18 02:21:00,55.4,49.7,29.46,SE,135,13.0,13.0,81,0.00,,,0.00,WUHU216HW,2013-11-18 07:21:00,
2013-11-18 02:26:00,55.6,49.9,29.45,South,180,10.5,13.0,81,0.00,,,0.00,WUHU216HW,2013-11-18 07:26:00,
2013-11-18 02:31:00,55.8,50.1,29.44,SE,135,13.0,13.0,81,0.00,,,0.00,WUHU216HW,2013-11-18 07:31:00,
2013-11-18 02:36:00,55.8,50.1,29.44,SE,135,13.0,13.0,81,0.00,,,0.00,WUHU216HW,2013-11-18 07:36:00,
2013-11-18 02:59:00,56.2,50.0,29.41,SSE,158,13.4,13.4,80,0.02,,,0.00,WUHU216HW,2013-11-18 07:59:00,
2013-11-18 03:04:00,56.3,50.2,29.40,SE,135,12.8,13.9,80,0.02,,,0.02,WUHU216HW,2013-11-18 08:04:00,
2013-11-18 03:09:00,56.3,50.2,29.40,SSE,158,12.3,13.9,80,0.02,,,0.02,WUHU216HW,2013-11-18 08:09:00,
2013-11-18 03:15:00,56.3,49.9,29.39,SE,135,10.1,12.5,79,0.02,,,0.02,WUHU216HW,2013-11-18 08:15:00,
2013-11-18 03:20:00,56.3,49.9,29.39,SE,135,11.6,12.5,79,0.02,,,0.02,WUHU216HW,2013-11-18 08:20:00,
2013-11-18 03:25:00,56.2,49.7,29.38,SE,135,8.5,12.3,79,0.03,,,0.03,WUHU216HW,2013-11-18 08:25:00,
2013-11-18 03:29:00,56.3,49.5,29.38,SE,135,10.3,10.3,78,0.04,,,0.04,WUHU216HW,2013-11-18 08:29:00,
2013-11-18 03:34:00,56.5,49.7,29.38,South,180,6.7,10.5,78,0.04,,,0.05,WUHU216HW,2013-11-18 08:34:00,
2013-11-18 03:39:00,56.5,49.7,29.37,SSE,158,8.5,10.5,78,0.05,,,0.06,WUHU216HW,2013-11-18 08:39:00,
2013-11-18 03:44:00,56.7,49.5,29.37,South,180,8.1,13.2,77,0.06,,,0.07,WUHU216HW,2013-11-18 08:44:00,
2013-11-18 03:49:00,56.9,49.7,29.36,SE,135,7.2,13.2,77,0.06,,,0.07,WUHU216HW,2013-11-18 08:49:00,
2013-11-18 03:54:00,57.1,49.5,29.36,SE,135,11.0,11.2,76,0.06,,,0.07,WUHU216HW,2013-11-18 08:54:00,
2013-11-18 03:59:00,57.2,49.7,29.36,SE,135,10.5,11.2,76,0.06,,,0.08,WUHU216HW,2013-11-18 08:59:00,
2013-11-18 04:04:00,57.2,49.7,29.36,SE,135,11.0,11.0,76,0.06,,,0.08,WUHU216HW,2013-11-18 09:04:00,
2013-11-18 04:09:00,57.4,49.9,29.35,SE,135,9.2,12.1,76,0.08,,,0.10,WUHU216HW,2013-11-18 09:09:00,
2013-11-18 04:14:00,57.4,49.9,29.35,SSE,158,10.3,12.1,76,0.08,,,0.10,WUHU216HW,2013-11-18 09:14:00,
2013-11-18 04:19:00,57.6,49.7,29.35,SSE,158,11.0,14.8,75,0.08,,,0.10,WUHU216HW,2013-11-18 09:19:00,
2013-11-18 04:24:00,57.8,49.9,29.34,SE,135,8.3,14.8,75,0.07,,,0.11,WUHU216HW,2013-11-18 09:24:00,
2013-11-18 04:29:00,58.0,50.0,29.34,SE,135,13.4,15.4,75,0.08,,,0.12,WUHU216HW,2013-11-18 09:29:00,
2013-11-18 04:34:00,58.3,50.4,29.35,SSE,158,11.0,15.4,75,0.07,,,0.12,WUHU216HW,2013-11-18 09:34:00,
2013-11-18 04:39:00,58.5,49.9,29.37,West,270,5.8,15.4,73,0.07,,,0.13,WUHU216HW,2013-11-18 09:39:00,
2013-11-18 04:44:00,58.3,49.7,29.40,WSW,248,3.1,16.1,73,0.15,,,0.22,WUHU216HW,2013-11-18 09:44:00,
2013-11-18 04:49:00,57.6,51.9,29.39,WSW,248,6.7,16.1,81,0.18,,,0.25,WUHU216HW,2013-11-18 09:49:00,
2013-11-18 04:54:00,57.4,51.7,29.38,WSW,248,4.0,12.3,81,0.18,,,0.26,WUHU216HW,2013-11-18 09:54:00,
2013-11-18 04:59:00,57.1,50.2,29.38,WSW,248,4.0,10.3,78,0.18,,,0.26,WUHU216HW,2013-11-18 09:59:00,
2013-11-18 05:04:00,57.1,49.5,29.39,West,270,12.8,12.8,76,0.16,,,0.26,WUHU216HW,2013-11-18 10:04:00,
2013-11-18 05:09:00,57.1,49.1,29.38,WSW,248,5.4,14.3,75,0.17,,,0.27,WUHU216HW,2013-11-18 10:09:00,
2013-11-18 05:14:00,56.7,48.4,29.38,SW,225,10.3,15.9,74,0.17,,,0.27,WUHU216HW,2013-11-18 10:14:00,
2013-11-18 05:19:00,56.3,49.1,29.38,West,270,6.5,15.9,77,0.17,,,0.27,WUHU216HW,2013-11-18 10:19:00,
2013-11-18 05:24:00,56.0,49.1,29.37,WSW,248,2.2,7.8,78,0.16,,,0.28,WUHU216HW,2013-11-18 10:24:00,
2013-11-18 05:30:00,55.4,49.0,29.37,SSE,158,10.1,10.1,79,0.17,,,0.29,WUHU216HW,2013-11-18 10:30:00,
2013-11-18 05:34:00,55.1,48.3,29.37,SSE,158,9.2,10.3,78,0.16,,,0.29,WUHU216HW,2013-11-18 10:34:00,
2013-11-18 05:39:00,54.7,48.3,29.37,SSE,158,9.2,10.3,79,0.16,,,0.29,WUHU216HW,2013-11-18 10:39:00,
2013-11-18 05:45:00,54.5,48.5,29.38,SSE,158,8.7,12.5,80,0.05,,,0.30,WUHU216HW,2013-11-18 10:45:00,
2013-11-18 05:50:00,54.5,48.2,29.41,SSE,158,12.1,12.5,79,0.04,,,0.30,WUHU216HW,2013-11-18 10:50:00,
2013-11-18 05:55:00,54.4,48.3,29.40,SE,135,12.1,12.1,80,0.04,,,0.30,WUHU216HW,2013-11-18 10:55:00,
2013-11-18 06:00:00,54.4,48.3,29.41,SSE,158,12.3,15.2,80,0.04,,,0.30,WUHU216HW,2013-11-18 11:00:00,
2013-11-18 06:05:00,54.4,48.3,29.41,SSE,158,10.5,15.2,80,0.03,,,0.30,WUHU216HW,2013-11-18 11:05:00,
2013-11-18 06:09:00,54.2,48.2,29.39,SSE,158,8.5,11.0,80,0.03,,,0.30,WUHU216HW,2013-11-18 11:09:00,
2013-11-18 06:14:00,54.0,48.1,29.40,SSE,158,11.0,11.0,80,0.03,,,0.30,WUHU216HW,2013-11-18 11:14:00,
2013-11-18 06:20:00,54.0,48.1,29.41,SSE,158,12.1,12.1,80,0.02,,,0.30,WUHU216HW,2013-11-18 11:20:00,
2013-11-18 06:25:00,54.0,48.1,29.41,East,90,8.9,12.1,80,0.01,,,0.30,WUHU216HW,2013-11-18 11:25:00,
2013-11-18 06:30:00,54.2,48.2,29.42,SW,225,4.9,11.4,80,0.01,,,0.30,WUHU216HW,2013-11-18 11:30:00,
2013-11-18 06:35:00,54.2,48.5,29.42,SE,135,6.0,11.4,81,0.01,,,0.30,WUHU216HW,2013-11-18 11:35:00,
2013-11-18 06:39:00,54.2,48.5,29.42,SSE,158,7.4,10.7,81,0.01,,,0.30,WUHU216HW,2013-11-18 11:39:00,
2013-11-18 06:44:00,54.2,48.5,29.43,SSE,158,2.7,9.2,81,0.00,,,0.30,WUHU216HW,2013-11-18 11:44:00,
2013-11-18 06:49:00,54.0,48.3,29.44,WSW,248,2.0,8.5,81,0.00,,,0.30,WUHU216HW,2013-11-18 11:49:00,
2013-11-18 06:55:00,53.8,48.2,29.44,SSE,158,2.0,4.3,81,0.00,,,0.30,WUHU216HW,2013-11-18 11:55:00,
2013-11-18 06:59:00,53.3,47.6,29.45,WSW,248,4.3,7.4,81,0.00,,,0.30,WUHU216HW,2013-11-18 11:59:00,
2013-11-18 07:04:00,52.7,47.4,29.44,SSW,203,1.6,7.4,82,0.00,,,0.30,WUHU216HW,2013-11-18 12:04:00,
2013-11-18 07:09:00,52.7,47.4,29.43,SSE,158,2.2,4.5,82,0.00,,,0.30,WUHU216HW,2013-11-18 12:09:00,
2013-11-18 07:14:00,52.6,47.3,29.43,SE,135,4.7,4.7,82,0.00,,,0.30,WUHU216HW,2013-11-18 12:14:00,
2013-11-18 07:19:00,52.4,47.1,29.43,SSE,158,1.8,6.7,82,0.00,,,0.30,WUHU216HW,2013-11-18 12:19:00,
2013-11-18 07:24:00,52.2,46.9,29.43,SW,225,5.4,6.7,82,0.00,,,0.30,WUHU216HW,2013-11-18 12:24:00,
2013-11-18 07:29:00,52.2,46.9,29.44,West,270,1.3,6.3,82,0.00,,,0.30,WUHU216HW,2013-11-18 12:29:00,
2013-11-18 07:34:00,52.2,46.9,29.44,West,270,1.8,5.1,82,0.00,,,0.30,WUHU216HW,2013-11-18 12:34:00,
2013-11-18 07:39:00,52.4,46.7,29.43,WSW,248,8.5,8.5,81,0.00,,,0.30,WUHU216HW,2013-11-18 12:39:00,
2013-11-18 07:44:00,52.9,46.6,29.43,SSW,203,6.9,8.5,79,0.00,,,0.30,WUHU216HW,2013-11-18 12:44:00,
2013-11-18 07:49:00,53.5,45.7,29.43,West,270,3.4,8.3,75,0.00,,,0.30,WUHU216HW,2013-11-18 12:49:00,
2013-11-18 07:54:00,53.6,45.5,29.44,WSW,248,2.2,8.3,74,0.00,,,0.30,WUHU216HW,2013-11-18 12:54:00,
2013-11-18 07:59:00,53.8,45.7,29.44,SW,225,2.5,7.6,74,0.00,,,0.30,WUHU216HW,2013-11-18 12:59:00,
2013-11-18 08:04:00,53.8,46.1,29.44,West,270,2.0,6.7,75,0.00,,,0.30,WUHU216HW,2013-11-18 13:04:00,
2013-11-18 08:09:00,54.0,46.3,29.44,SSE,158,5.8,9.2,75,0.00,,,0.30,WUHU216HW,2013-11-18 13:09:00,
2013-11-18 08:14:00,54.0,46.3,29.44,WSW,248,3.4,9.2,75,0.00,,,0.30,WUHU216HW,2013-11-18 13:14:00,
2013-11-18 08:19:00,54.2,45.7,29.45,WSW,248,2.5,5.6,73,0.00,,,0.30,WUHU216HW,2013-11-18 13:19:00,
2013-11-18 08:24:00,54.2,45.0,29.45,West,270,2.0,7.6,71,0.00,,,0.30,WUHU216HW,2013-11-18 13:24:00,
2013-11-18 08:29:00,54.4,44.8,29.46,WSW,248,2.9,7.6,70,0.00,,,0.30,WUHU216HW,2013-11-18 13:29:00,
2013-11-18 08:34:00,54.4,43.7,29.46,West,270,5.4,6.5,67,0.00,,,0.30,WUHU216HW,2013-11-18 13:34:00,
2013-11-18 08:39:00,54.4,43.2,29.46,West,270,3.1,9.6,66,0.00,,,0.30,WUHU216HW,2013-11-18 13:39:00,
2013-11-18 08:44:00,54.4,43.2,29.46,SW,225,3.6,12.1,66,0.00,,,0.30,WUHU216HW,2013-11-18 13:44:00,
2013-11-18 08:49:00,54.0,43.3,29.47,WSW,248,2.5,12.1,67,0.00,,,0.30,WUHU216HW,2013-11-18 13:49:00,
2013-11-18 08:54:00,53.8,43.1,29.47,WSW,248,3.4,9.8,67,0.00,,,0.30,WUHU216HW,2013-11-18 13:54:00,
2013-11-18 08:59:00,53.6,43.8,29.47,SSE,158,5.1,9.8,69,0.00,,,0.30,WUHU216HW,2013-11-18 13:59:00,
2013-11-18 09:04:00,53.6,44.1,29.47,SE,135,8.1,8.3,70,0.00,,,0.30,WUHU216HW,2013-11-18 14:04:00,
2013-11-18 09:09:00,53.6,44.1,29.47,NW,315,3.4,8.1,70,0.00,,,0.30,WUHU216HW,2013-11-18 14:09:00,
2013-11-18 09:14:00,53.5,43.9,29.47,SE,135,2.9,5.8,70,0.00,,,0.30,WUHU216HW,2013-11-18 14:14:00,
2013-11-18 09:19:00,53.3,43.7,29.47,SW,225,4.3,5.8,70,0.00,,,0.30,WUHU216HW,2013-11-18 14:19:00,
2013-11-18 09:24:00,53.3,43.7,29.47,SSE,158,6.5,6.5,70,0.00,,,0.30,WUHU216HW,2013-11-18 14:24:00,
2013-11-18 09:29:00,53.3,44.1,29.47,SE,135,1.8,6.9,71,0.00,,,0.30,WUHU216HW,2013-11-18 14:29:00,
2013-11-18 09:34:00,53.3,44.1,29.47,WSW,248,3.4,6.9,71,0.00,,,0.30,WUHU216HW,2013-11-18 14:34:00,
2013-11-18 09:39:00,53.3,44.1,29.47,SE,135,1.8,6.3,71,0.00,,,0.30,WUHU216HW,2013-11-18 14:39:00,
2013-11-18 09:44:00,53.3,43.7,29.47,SSE,158,11.2,11.2,70,0.00,,,0.30,WUHU216HW,2013-11-18 14:44:00,
2013-11-18 09:49:00,53.6,43.3,29.48,West,270,4.0,11.2,68,0.00,,,0.30,WUHU216HW,2013-11-18 14:49:00,
2013-11-18 09:54:00,54.2,43.5,29.48,SSE,158,4.0,6.0,67,0.00,,,0.30,WUHU216HW,2013-11-18 14:54:00,
2013-11-18 09:59:00,54.4,43.2,29.48,SSE,158,1.1,5.1,66,0.00,,,0.30,WUHU216HW,2013-11-18 14:59:00,
2013-11-18 10:04:00,54.5,42.6,29.48,West,270,5.4,5.4,64,0.00,,,0.30,WUHU216HW,2013-11-18 15:04:00,
2013-11-18 10:09:00,54.4,42.4,29.49,WSW,248,6.9,8.5,64,0.00,,,0.30,WUHU216HW,2013-11-18 15:09:00,
2013-11-18 10:14:00,54.2,42.2,29.49,WSW,248,9.8,9.8,64,0.00,,,0.30,WUHU216HW,2013-11-18 15:14:00,
2013-11-18 10:19:00,53.8,41.9,29.49,NW,315,12.1,12.1,64,0.00,,,0.30,WUHU216HW,2013-11-18 15:19:00,
2013-11-18 10:24:00,53.6,42.1,29.49,WSW,248,2.9,12.1,65,0.00,,,0.30,WUHU216HW,2013-11-18 15:24:00,
2013-11-18 10:29:00,53.6,42.5,29.49,SE,135,4.7,10.1,66,0.00,,,0.30,WUHU216HW,2013-11-18 15:29:00,
2013-11-18 10:34:00,53.6,42.1,29.49,West,270,4.0,4.7,65,0.00,,,0.30,WUHU216HW,2013-11-18 15:34:00,
2013-11-18 10:39:00,54.0,42.0,29.48,NNW,338,0.9,4.0,64,0.00,,,0.30,WUHU216HW,2013-11-18 15:39:00,
2013-11-18 10:44:00,54.4,42.4,29.48,WNW,293,6.7,6.7,64,0.00,,,0.30,WUHU216HW,2013-11-18 15:44:00,
2013-11-18 10:49:00,54.5,42.6,29.48,West,270,4.0,6.7,64,0.00,,,0.30,WUHU216HW,2013-11-18 15:49:00,
2013-11-18 10:51:00,54.7,42.3,29.48,West,270,2.2,6.7,63,0.00,,,0.30,WUHU216HW,2013-11-18 15:51:00,
2013-11-18 10:56:00,55.1,41.9,29.48,WSW,248,9.2,9.2,61,0.00,,,0.30,WUHU216HW,2013-11-18 15:56:00,
2013-11-18 11:01:00,55.1,40.5,29.48,WSW,248,6.9,9.8,58,0.00,,,0.30,WUHU216HW,2013-11-18 16:01:00,
2013-11-18 11:06:00,55.1,40.5,29.48,West,270,5.4,15.0,58,0.00,,,0.30,WUHU216HW,2013-11-18 16:06:00,
2013-11-18 11:11:00,55.1,40.5,29.47,West,270,9.2,15.0,58,0.00,,,0.30,WUHU216HW,2013-11-18 16:11:00,
2013-11-18 11:16:00,55.1,40.1,29.47,WNW,293,8.5,16.8,57,0.00,,,0.30,WUHU216HW,2013-11-18 16:16:00,
2013-11-18 11:21:00,55.1,40.5,29.48,ESE,113,4.9,16.8,58,0.00,,,0.30,WUHU216HW,2013-11-18 16:21:00,
2013-11-18 11:26:00,55.1,40.5,29.48,ESE,113,4.9,7.4,58,0.00,,,0.30,WUHU216HW,2013-11-18 16:26:00,
2013-11-18 11:48:00,55.8,39.8,29.47,West,270,6.3,6.3,55,0.00,,,0.30,WUHU216HW,2013-11-18 16:48:00,
2013-11-18 11:53:00,55.8,38.9,29.47,SSW,203,6.7,11.6,53,0.00,,,0.30,WUHU216HW,2013-11-18 16:53:00,
2013-11-18 11:58:00,55.8,38.9,29.47,WNW,293,7.4,15.7,53,0.00,,,0.30,WUHU216HW,2013-11-18 16:58:00,
2013-11-18 12:03:00,55.6,38.7,29.47,WSW,248,7.6,16.6,53,0.00,,,0.30,WUHU216HW,2013-11-18 17:03:00,
2013-11-18 12:08:00,55.8,38.9,29.47,WNW,293,9.4,16.6,53,0.00,,,0.30,WUHU216HW,2013-11-18 17:08:00,
2013-11-18 12:13:00,55.6,39.2,29.48,West,270,7.4,14.3,54,0.00,,,0.30,WUHU216HW,2013-11-18 17:13:00,
2013-11-18 12:18:00,55.6,38.7,29.48,West,270,12.5,13.9,53,0.00,,,0.30,WUHU216HW,2013-11-18 17:18:00,
2013-11-18 12:23:00,55.6,38.7,29.48,West,270,8.5,13.4,53,0.00,,,0.30,WUHU216HW,2013-11-18 17:23:00,
2013-11-18 12:28:00,55.4,38.0,29.48,West,270,11.6,16.6,52,0.00,,,0.30,WUHU216HW,2013-11-18 17:28:00,
2013-11-18 12:33:00,55.3,38.4,29.48,WSW,248,12.8,20.6,53,0.00,,,0.30,WUHU216HW,2013-11-18 17:33:00,
2013-11-18 12:38:00,55.1,38.6,29.48,WSW,248,8.5,20.6,54,0.00,,,0.30,WUHU216HW,2013-11-18 17:38:00,
2013-11-18 12:43:00,55.3,38.4,29.49,WSW,248,6.3,11.9,53,0.00,,,0.30,WUHU216HW,2013-11-18 17:43:00,
2013-11-18 12:48:00,54.9,39.4,29.49,West,270,15.0,15.0,56,0.00,,,0.30,WUHU216HW,2013-11-18 17:48:00,
2013-11-18 12:53:00,53.8,40.3,29.49,West,270,16.3,16.3,60,0.00,,,0.30,WUHU216HW,2013-11-18 17:53:00,
2013-11-18 12:58:00,53.3,39.8,29.49,WNW,293,13.2,16.3,60,0.00,,,0.30,WUHU216HW,2013-11-18 17:58:00,
2013-11-18 13:03:00,53.3,40.1,29.49,West,270,12.8,15.2,61,0.00,,,0.30,WUHU216HW,2013-11-18 18:03:00,
2013-11-18 13:08:00,53.1,39.6,29.50,West,270,12.1,15.2,60,0.00,,,0.30,WUHU216HW,2013-11-18 18:08:00,
2013-11-18 13:13:00,52.9,39.8,29.50,West,270,11.6,13.0,61,0.00,,,0.30,WUHU216HW,2013-11-18 18:13:00,
2013-11-18 13:18:00,52.9,39.0,29.50,West,270,12.8,17.9,59,0.00,,,0.30,WUHU216HW,2013-11-18 18:18:00,
2013-11-18 13:23:00,52.9,40.2,29.51,WNW,293,14.8,21.3,62,0.00,,,0.30,WUHU216HW,2013-11-18 18:23:00,
2013-11-18 13:28:00,52.4,39.3,29.51,WNW,293,19.2,21.3,61,0.00,,,0.30,WUHU216HW,2013-11-18 18:28:00,
2013-11-18 13:33:00,52.4,38.9,29.51,West,270,15.0,19.2,60,0.00,,,0.30,WUHU216HW,2013-11-18 18:33:00,
2013-11-18 13:38:00,52.2,39.2,29.51,WNW,293,14.1,17.9,61,0.00,,,0.30,WUHU216HW,2013-11-18 18:38:00,
2013-11-18 13:43:00,52.2,39.5,29.51,West,270,16.1,17.9,62,0.00,,,0.30,WUHU216HW,2013-11-18 18:43:00,
2013-11-18 13:48:00,52.2,39.2,29.51,West,270,11.4,16.8,61,0.00,,,0.30,WUHU216HW,2013-11-18 18:48:00,
2013-11-18 13:53:00,52.2,39.2,29.51,West,270,15.4,17.9,61,0.00,,,0.30,WUHU216HW,2013-11-18 18:53:00,
2013-11-18 13:58:00,52.0,38.5,29.51,West,270,18.8,18.8,60,0.00,,,0.30,WUHU216HW,2013-11-18 18:58:00,
2013-11-18 14:03:00,52.4,37.1,29.51,West,270,15.4,18.8,56,0.00,,,0.30,WUHU216HW,2013-11-18 19:03:00,
2013-11-18 14:08:00,52.6,37.3,29.52,NW,315,15.7,19.9,56,0.00,,,0.30,WUHU216HW,2013-11-18 19:08:00,
2013-11-18 14:13:00,52.7,37.5,29.52,WSW,248,11.9,19.9,56,0.00,,,0.30,WUHU216HW,2013-11-18 19:13:00,
2013-11-18 14:18:00,52.9,37.1,29.53,WSW,248,5.1,15.7,55,0.00,,,0.30,WUHU216HW,2013-11-18 19:18:00,
2013-11-18 14:23:00,53.1,37.3,29.52,South,180,2.0,9.2,55,0.00,,,0.30,WUHU216HW,2013-11-18 19:23:00,
2013-11-18 14:28:00,53.3,36.6,29.52,West,270,3.4,8.1,53,0.00,,,0.30,WUHU216HW,2013-11-18 19:28:00,
2013-11-18 14:33:00,53.5,36.3,29.52,West,270,2.7,8.1,52,0.00,,,0.30,WUHU216HW,2013-11-18 19:33:00,
2013-11-18 14:38:00,53.6,35.9,29.52,WSW,248,4.7,10.1,51,0.00,,,0.30,WUHU216HW,2013-11-18 19:38:00,
2013-11-18 14:43:00,54.2,36.5,29.52,WSW,248,3.6,10.1,51,0.00,,,0.30,WUHU216HW,2013-11-18 19:43:00,
2013-11-18 14:48:00,54.5,35.7,29.52,WSW,248,6.0,8.5,49,0.00,,,0.30,WUHU216HW,2013-11-18 19:48:00,
2013-11-18 14:53:00,54.9,35.5,29.53,WSW,248,2.0,7.2,48,0.00,,,0.30,WUHU216HW,2013-11-18 19:53:00,
2013-11-18 14:58:00,55.3,35.3,29.53,WSW,248,5.8,7.2,47,0.00,,,0.30,WUHU216HW,2013-11-18 19:58:00,
2013-11-18 15:03:00,55.4,34.8,29.52,SSW,203,2.7,7.4,46,0.00,,,0.30,WUHU216HW,2013-11-18 20:03:00,
2013-11-18 15:08:00,55.4,35.4,29.53,WSW,248,2.5,7.4,47,0.00,,,0.30,WUHU216HW,2013-11-18 20:08:00,
2013-11-18 15:13:00,55.6,36.2,29.53,WSW,248,6.3,6.3,48,0.00,,,0.30,WUHU216HW,2013-11-18 20:13:00,
2013-11-18 15:18:00,55.3,34.1,29.53,WSW,248,6.9,8.3,45,0.00,,,0.30,WUHU216HW,2013-11-18 20:18:00,
2013-11-18 15:23:00,55.4,36.0,29.53,SE,135,7.8,8.3,48,0.00,,,0.30,WUHU216HW,2013-11-18 20:23:00,
2013-11-18 15:28:00,55.4,36.0,29.53,WSW,248,1.6,7.8,48,0.00,,,0.30,WUHU216HW,2013-11-18 20:28:00,
2013-11-18 15:33:00,55.4,36.0,29.53,WSW,248,4.7,5.4,48,0.00,,,0.30,WUHU216HW,2013-11-18 20:33:00,
2013-11-18 15:38:00,55.6,36.2,29.53,West,270,1.3,5.4,48,0.00,,,0.30,WUHU216HW,2013-11-18 20:38:00,
2013-11-18 15:43:00,55.8,36.9,29.53,SSE,158,2.5,4.3,49,0.00,,,0.30,WUHU216HW,2013-11-18 20:43:00,
2013-11-18 15:48:00,55.3,36.4,29.53,WSW,248,2.5,4.3,49,0.00,,,0.30,WUHU216HW,2013-11-18 20:48:00,
2013-11-18 15:53:00,54.5,36.3,29.53,SW,225,1.1,2.7,50,0.00,,,0.30,WUHU216HW,2013-11-18 20:53:00,
2013-11-18 15:58:00,53.8,35.1,29.52,SW,225,1.1,2.7,49,0.00,,,0.30,WUHU216HW,2013-11-18 20:58:00,
2013-11-18 16:03:00,53.3,35.1,29.53,WSW,248,2.7,2.7,50,0.00,,,0.30,WUHU216HW,2013-11-18 21:03:00,
2013-11-18 16:08:00,52.9,34.3,29.53,South,180,1.3,4.5,49,0.00,,,0.30,WUHU216HW,2013-11-18 21:08:00,
2013-11-18 16:13:00,52.9,34.3,29.53,SSE,158,1.6,4.5,49,0.00,,,0.30,WUHU216HW,2013-11-18 21:13:00,
2013-11-18 16:18:00,52.7,34.1,29.54,WSW,248,3.4,4.0,49,0.00,,,0.30,WUHU216HW,2013-11-18 21:18:00,
2013-11-18 16:23:00,52.6,33.9,29.54,WSW,248,3.4,5.1,49,0.00,,,0.30,WUHU216HW,2013-11-18 21:23:00,
2013-11-18 16:28:00,52.0,36.3,29.56,West,270,14.5,24.4,55,0.00,,,0.30,WUHU216HW,2013-11-18 21:28:00,
2013-11-18 16:33:00,51.3,36.1,29.55,West,270,6.9,24.4,56,0.00,,,0.30,WUHU216HW,2013-11-18 21:33:00,
2013-11-18 16:38:00,50.8,36.5,29.56,West,270,8.9,10.7,58,0.00,,,0.30,WUHU216HW,2013-11-18 21:38:00,
2013-11-18 16:43:00,50.6,37.2,29.56,West,270,13.4,15.0,60,0.00,,,0.30,WUHU216HW,2013-11-18 21:43:00,
2013-11-18 16:48:00,50.2,37.3,29.56,West,270,22.6,22.6,61,0.00,,,0.30,WUHU216HW,2013-11-18 21:48:00,
2013-11-18 16:53:00,50.4,37.1,29.56,WNW,293,17.2,22.6,60,0.00,,,0.30,WUHU216HW,2013-11-18 21:53:00,
2013-11-18 16:58:00,50.2,36.5,29.57,West,270,19.2,21.5,59,0.00,,,0.30,WUHU216HW,2013-11-18 21:58:00,
2013-11-18 17:03:00,50.0,36.7,29.57,WNW,293,11.9,26.8,60,0.00,,,0.30,WUHU216HW,2013-11-18 22:03:00,
2013-11-18 17:08:00,49.9,36.1,29.57,WSW,248,10.7,26.8,59,0.00,,,0.30,WUHU216HW,2013-11-18 22:08:00,
2013-11-18 17:13:00,49.7,36.4,29.57,West,270,13.2,16.1,60,0.00,,,0.30,WUHU216HW,2013-11-18 22:13:00,
2013-11-18 17:18:00,49.3,36.1,29.57,WSW,248,13.6,16.3,60,0.00,,,0.30,WUHU216HW,2013-11-18 22:18:00,
2013-11-18 17:23:00,49.3,36.5,29.57,West,270,9.8,16.3,61,0.00,,,0.30,WUHU216HW,2013-11-18 22:23:00,
2013-11-18 17:28:00,49.0,36.1,29.58,WSW,248,13.4,14.3,61,0.00,,,0.30,WUHU216HW,2013-11-18 22:28:00,
2013-11-18 17:33:00,49.0,35.7,29.58,WSW,248,8.3,13.4,60,0.00,,,0.30,WUHU216HW,2013-11-18 22:33:00,
2013-11-18 17:38:00,48.8,35.1,29.58,SW,225,4.7,12.8,59,0.00,,,0.30,WUHU216HW,2013-11-18 22:38:00,
2013-11-18 17:43:00,48.6,35.5,29.58,West,270,6.9,9.4,60,0.00,,,0.30,WUHU216HW,2013-11-18 22:43:00,
2013-11-18 17:48:00,48.6,35.5,29.58,West,270,6.9,8.5,60,0.00,,,0.30,WUHU216HW,2013-11-18 22:48:00,
2013-11-18 17:53:00,48.6,35.5,29.58,West,270,6.9,6.9,60,0.00,,,0.30,WUHU216HW,2013-11-18 22:53:00,
2013-11-18 17:59:00,48.4,34.3,29.59,West,270,9.6,9.6,58,0.00,,,0.30,WUHU216HW,2013-11-18 22:59:00,
2013-11-18 18:04:00,48.6,34.9,29.59,West,270,5.1,13.0,59,0.00,,,0.30,WUHU216HW,2013-11-18 23:04:00,
2013-11-18 18:09:00,48.6,35.8,29.60,WNW,293,10.7,13.0,61,0.00,,,0.30,WUHU216HW,2013-11-18 23:09:00,
2013-11-18 18:14:00,48.2,35.5,29.60,West,270,8.1,16.3,61,0.00,,,0.30,WUHU216HW,2013-11-18 23:14:00,
2013-11-18 18:19:00,47.9,35.9,29.60,West,270,5.4,16.3,63,0.00,,,0.30,WUHU216HW,2013-11-18 23:19:00,
2013-11-18 18:24:00,47.7,35.4,29.59,West,270,5.4,9.8,62,0.00,,,0.30,WUHU216HW,2013-11-18 23:24:00,
2013-11-18 18:29:00,47.5,35.2,29.59,West,270,3.6,9.8,62,0.00,,,0.30,WUHU216HW,2013-11-18 23:29:00,
2013-11-18 18:34:00,47.2,34.8,29.59,WSW,248,4.0,5.6,62,0.00,,,0.30,WUHU216HW,2013-11-18 23:34:00,
2013-11-18 18:39:00,47.2,34.8,29.60,West,270,3.1,5.6,62,0.00,,,0.30,WUHU216HW,2013-11-18 23:39:00,
2013-11-18 18:44:00,46.8,34.5,29.60,WSW,248,3.4,4.7,62,0.00,,,0.30,WUHU216HW,2013-11-18 23:44:00,
2013-11-18 18:49:00,46.6,34.3,29.60,WSW,248,3.4,4.9,62,0.00,,,0.30,WUHU216HW,2013-11-18 23:49:00,
2013-11-18 18:54:00,46.6,34.3,29.60,WSW,248,2.0,4.9,62,0.00,,,0.30,WUHU216HW,2013-11-18 23:54:00,
2013-11-18 18:59:00,46.4,34.1,29.60,WSW,248,4.5,4.7,62,0.00,,,0.30,WUHU216HW,2013-11-18 23:59:00,
2013-11-18 19:04:00,46.4,34.5,29.60,WSW,248,5.4,5.4,63,0.00,,,0.30,WUHU216HW,2013-11-19 00:04:00,
2013-11-18 19:09:00,46.4,34.5,29.61,NW,315,5.6,6.7,63,0.00,,,0.30,WUHU216HW,2013-11-19 00:09:00,
2013-11-18 19:14:00,46.4,34.5,29.61,West,270,9.8,9.8,63,0.00,,,0.30,WUHU216HW,2013-11-19 00:14:00,
2013-11-18 19:19:00,46.6,35.1,29.61,WSW,248,9.8,9.8,64,0.00,,,0.30,WUHU216HW,2013-11-19 00:19:00,
2013-11-18 19:24:00,46.6,35.1,29.61,West,270,12.5,15.9,64,0.00,,,0.30,WUHU216HW,2013-11-19 00:24:00,
2013-11-18 19:29:00,46.4,34.9,29.61,WNW,293,8.5,15.9,64,0.00,,,0.30,WUHU216HW,2013-11-19 00:29:00,
2013-11-18 19:34:00,46.3,35.5,29.61,WNW,293,9.4,11.6,66,0.00,,,0.30,WUHU216HW,2013-11-19 00:34:00,
2013-11-18 19:39:00,46.1,34.9,29.61,WSW,248,6.9,9.4,65,0.00,,,0.30,WUHU216HW,2013-11-19 00:39:00,
2013-11-18 19:44:00,45.9,35.2,29.61,WSW,248,7.8,11.9,66,0.00,,,0.30,WUHU216HW,2013-11-19 00:44:00,
2013-11-18 19:49:00,45.7,35.4,29.61,WSW,248,9.4,12.1,67,0.00,,,0.30,WUHU216HW,2013-11-19 00:49:00,
2013-11-18 19:54:00,45.7,35.7,29.61,West,270,6.5,12.1,68,0.00,,,0.30,WUHU216HW,2013-11-19 00:54:00,
2013-11-18 19:59:00,45.5,34.8,29.62,West,270,6.7,8.9,66,0.00,,,0.30,WUHU216HW,2013-11-19 00:59:00,
2013-11-18 20:04:00,45.5,34.8,29.62,West,270,8.5,9.8,66,0.00,,,0.30,WUHU216HW,2013-11-19 01:04:00,
2013-11-18 20:09:00,45.4,35.0,29.62,NW,315,13.2,13.4,67,0.00,,,0.30,WUHU216HW,2013-11-19 01:09:00,
2013-11-18 20:14:00,45.2,34.5,29.62,West,270,7.6,13.4,66,0.00,,,0.30,WUHU216HW,2013-11-19 01:14:00,
2013-11-18 20:19:00,45.2,34.5,29.62,WNW,293,7.6,12.1,66,0.00,,,0.30,WUHU216HW,2013-11-19 01:19:00,
2013-11-18 20:24:00,45.4,34.7,29.61,WSW,248,5.4,12.1,66,0.00,,,0.30,WUHU216HW,2013-11-19 01:24:00,
2013-11-18 20:29:00,45.2,34.5,29.61,West,270,7.6,11.2,66,0.00,,,0.30,WUHU216HW,2013-11-19 01:29:00,
2013-11-18 20:34:00,45.7,34.6,29.61,West,270,17.7,19.2,65,0.00,,,0.30,WUHU216HW,2013-11-19 01:34:00,
2013-11-18 20:39:00,45.9,33.6,29.62,West,270,19.7,19.7,62,0.00,,,0.30,WUHU216HW,2013-11-19 01:39:00,
2013-11-18 20:44:00,46.1,33.8,29.61,West,270,13.4,19.7,62,0.00,,,0.30,WUHU216HW,2013-11-19 01:44:00,
2013-11-18 20:49:00,45.9,33.2,29.61,WSW,248,12.1,19.7,61,0.00,,,0.30,WUHU216HW,2013-11-19 01:49:00,
2013-11-18 20:54:00,45.9,32.9,29.61,West,270,16.6,18.6,60,0.00,,,0.30,WUHU216HW,2013-11-19 01:54:00,
2013-11-18 20:59:00,45.9,33.2,29.61,WSW,248,7.6,18.6,61,0.00,,,0.30,WUHU216HW,2013-11-19 01:59:00,
2013-11-18 21:04:00,45.7,32.7,29.61,WSW,248,9.2,18.6,60,0.00,,,0.30,WUHU216HW,2013-11-19 02:04:00,
2013-11-18 21:09:00,45.7,32.7,29.60,NW,315,16.3,21.3,60,0.00,,,0.30,WUHU216HW,2013-11-19 02:09:00,
2013-11-18 21:14:00,45.9,32.0,29.60,WNW,293,15.2,21.3,58,0.00,,,0.30,WUHU216HW,2013-11-19 02:14:00,
2013-11-18 21:19:00,45.9,32.0,29.59,SW,225,13.4,16.3,58,0.00,,,0.30,WUHU216HW,2013-11-19 02:19:00,
2013-11-18 21:24:00,45.7,32.2,29.59,West,270,8.3,16.3,59,0.00,,,0.30,WUHU216HW,2013-11-19 02:24:00,
2013-11-18 21:29:00,45.7,31.8,29.59,West,270,15.7,15.7,58,0.00,,,0.30,WUHU216HW,2013-11-19 02:29:00,
2013-11-18 21:34:00,45.7,32.2,29.59,WSW,248,10.5,16.3,59,0.00,,,0.30,WUHU216HW,2013-11-19 02:34:00,
2013-11-18 21:39:00,45.5,32.0,29.59,West,270,13.0,16.3,59,0.00,,,0.30,WUHU216HW,2013-11-19 02:39:00,
2013-11-18 21:44:00,45.4,31.4,29.60,WSW,248,16.6,17.2,58,0.00,,,0.30,WUHU216HW,2013-11-19 02:44:00,
2013-11-18 21:49:00,45.4,31.9,29.60,West,270,8.5,17.2,59,0.00,,,0.30,WUHU216HW,2013-11-19 02:49:00,
2013-11-18 21:54:00,45.2,31.7,29.60,WSW,248,11.4,15.9,59,0.00,,,0.30,WUHU216HW,2013-11-19 02:54:00,
2013-11-18 21:59:00,45.2,31.2,29.60,NW,315,10.3,14.5,58,0.00,,,0.30,WUHU216HW,2013-11-19 02:59:00,
2013-11-18 22:04:00,45.0,31.6,29.60,WSW,248,4.0,14.5,59,0.00,,,0.30,WUHU216HW,2013-11-19 03:04:00,
2013-11-18 22:09:00,44.8,31.4,29.60,WSW,248,6.3,10.5,59,0.00,,,0.30,WUHU216HW,2013-11-19 03:09:00,
2013-11-18 22:14:00,44.5,31.1,29.61,WNW,293,4.5,6.7,59,0.00,,,0.30,WUHU216HW,2013-11-19 03:14:00,
2013-11-18 22:19:00,44.1,30.7,29.61,WSW,248,5.6,7.8,59,0.00,,,0.30,WUHU216HW,2013-11-19 03:19:00,
2013-11-18 22:24:00,43.9,30.5,29.61,SW,225,5.6,7.8,59,0.00,,,0.30,WUHU216HW,2013-11-19 03:24:00,
2013-11-18 22:29:00,43.7,30.3,29.62,WSW,248,4.5,6.7,59,0.00,,,0.30,WUHU216HW,2013-11-19 03:29:00,
2013-11-18 22:34:00,43.6,29.7,29.62,SW,225,8.9,8.9,58,0.00,,,0.30,WUHU216HW,2013-11-19 03:34:00,
2013-11-18 22:39:00,43.6,30.2,29.62,West,270,3.8,8.9,59,0.00,,,0.30,WUHU216HW,2013-11-19 03:39:00,
2013-11-18 22:44:00,43.6,30.2,29.63,West,270,2.7,4.7,59,0.00,,,0.30,WUHU216HW,2013-11-19 03:44:00,
2013-11-18 22:49:00,43.4,30.0,29.63,SE,135,1.3,6.3,59,0.00,,,0.30,WUHU216HW,2013-11-19 03:49:00,
2013-11-18 22:54:00,43.4,30.0,29.63,SW,225,2.2,6.3,59,0.00,,,0.30,WUHU216HW,2013-11-19 03:54:00,
2013-11-18 22:59:00,43.2,29.8,29.64,SW,225,3.8,4.9,59,0.00,,,0.30,WUHU216HW,2013-11-19 03:59:00,
2013-11-18 23:04:00,43.2,29.8,29.64,SSE,158,4.0,7.4,59,0.00,,,0.30,WUHU216HW,2013-11-19 04:04:00,
2013-11-18 23:07:00,43.0,29.6,29.64,South,180,3.4,7.4,59,0.00,,,0.30,WUHU216HW,2013-11-19 04:07:00,
2013-11-18 23:12:00,43.0,28.8,29.64,West,270,1.8,5.4,57,0.00,,,0.30,WUHU216HW,2013-11-19 04:12:00,
2013-11-18 23:17:00,43.0,27.9,29.65,NW,315,11.0,11.0,55,0.00,,,0.30,WUHU216HW,2013-11-19 04:17:00,
2013-11-18 23:22:00,43.4,28.3,29.65,South,180,1.6,12.8,55,0.00,,,0.30,WUHU216HW,2013-11-19 04:22:00,
2013-11-18 23:27:00,43.2,28.1,29.65,West,270,4.3,12.8,55,0.00,,,0.30,WUHU216HW,2013-11-19 04:27:00,
2013-11-18 23:32:00,43.0,27.9,29.64,WSW,248,4.7,4.9,55,0.00,,,0.30,WUHU216HW,2013-11-19 04:32:00,
2013-11-18 23:37:00,42.8,27.7,29.64,WSW,248,4.7,4.7,55,0.00,,,0.30,WUHU216HW,2013-11-19 04:37:00,
2013-11-18 23:42:00,42.7,27.5,29.64,West,270,4.0,6.0,55,0.00,,,0.30,WUHU216HW,2013-11-19 04:42:00,
2013-11-18 23:47:00,42.7,27.5,29.65,WSW,248,4.3,8.5,55,0.00,,,0.30,WUHU216HW,2013-11-19 04:47:00,
2013-11-18 23:52:00,42.5,27.4,29.66,West,270,2.5,8.5,55,0.00,,,0.30,WUHU216HW,2013-11-19 04:52:00,
2013-11-18 23:57:00,42.7,27.5,29.66,WSW,248,3.4,9.4,55,0.00,,,0.30,WUHU216HW,2013-11-19 04:57:00,